Time;durP1;ratioP1;P1;durP2;ratioP2;P2;SDS_P1;SDS_P2;PMS_P1;PMS_P2;Temp;Humidity;BMP_temperature;BMP_pressure;BME280_temperature;BME280_humidity;BME280_pressure;Samples;Min_cycle;Max_cycle;Signal;HPM_P1;HPM_P2
2022/11/14 00:01:33;;;;;;;48.00;24.48;;;6.60;99.90;;;;;;5079784;28;20040;-33
2022/11/14 00:03:59;;;;;;;43.92;24.75;;;6.60;99.90;;;;;;5074234;28;20391;-34
2022/11/14 00:06:24;;;;;;;45.70;26.45;;;6.70;99.90;;;;;;5075833;28;20037;-33
2022/11/14 00:08:50;;;;;;;45.55;25.63;;;6.70;99.90;;;;;;5059620;28;20548;-32
2022/11/14 00:11:16;;;;;;;45.90;25.27;;;6.70;99.90;;;;;;5060790;28;20401;-31
2022/11/14 00:13:42;;;;;;;46.97;25.77;;;6.70;99.90;;;;;;5074776;28;20036;-31
2022/11/14 00:16:07;;;;;;;50.53;27.63;;;6.70;99.90;;;;;;5089192;28;20075;-33
2022/11/14 00:18:33;;;;;;;48.05;27.85;;;6.70;99.90;;;;;;5074789;28;20040;-34
2022/11/14 00:21:00;;;;;;;47.40;25.80;;;6.70;99.90;;;;;;5075198;28;20033;-32
2022/11/14 00:23:26;;;;;;;47.13;26.08;;;6.70;99.90;;;;;;5072822;28;20036;-34
2022/11/14 00:25:52;;;;;;;49.88;26.48;;;6.70;99.90;;;;;;5058291;28;20044;-34
2022/11/14 00:28:18;;;;;;;43.80;25.35;;;6.60;99.90;;;;;;5082920;28;20032;-33
2022/11/14 00:30:47;;;;;;;49.08;27.27;;;6.70;99.90;;;;;;5072068;28;20037;-32
2022/11/14 00:33:13;;;;;;;47.72;27.42;;;6.70;99.90;;;;;;5066401;28;20029;-33
2022/11/14 00:35:39;;;;;;;45.33;26.33;;;6.70;99.90;;;;;;5061829;28;20035;-32
2022/11/14 00:38:05;;;;;;;52.72;29.30;;;6.70;99.90;;;;;;5075516;28;20375;-33
2022/11/14 00:40:30;;;;;;;53.08;28.95;;;6.70;99.90;;;;;;5070972;28;20425;-32
2022/11/14 00:42:56;;;;;;;54.15;29.95;;;6.70;99.90;;;;;;5056859;28;20107;-32
2022/11/14 00:45:22;;;;;;;54.28;30.20;;;6.80;99.90;;;;;;5080212;28;20040;-31
2022/11/14 00:47:48;;;;;;;52.10;30.60;;;6.80;99.90;;;;;;5059770;28;20372;-32
2022/11/14 00:50:15;;;;;;;48.40;27.73;;;6.70;99.90;;;;;;5044932;28;20043;-31
2022/11/14 00:52:41;;;;;;;51.08;28.60;;;6.70;99.90;;;;;;5070362;28;20112;-33
2022/11/14 00:55:07;;;;;;;53.15;30.40;;;6.70;99.90;;;;;;5075151;28;20068;-32
2022/11/14 00:57:33;;;;;;;57.15;30.38;;;6.70;99.90;;;;;;5073893;28;20051;-30
2022/11/14 00:59:59;;;;;;;51.58;30.02;;;6.70;99.90;;;;;;5067564;28;20029;-31
2022/11/14 01:02:25;;;;;;;53.28;30.67;;;6.60;99.90;;;;;;5075697;28;20127;-32
2022/11/14 01:04:50;;;;;;;53.65;30.63;;;6.60;99.90;;;;;;5079131;28;20453;-33
2022/11/14 01:07:16;;;;;;;50.53;29.13;;;6.50;99.90;;;;;;5068271;28;20090;-30
2022/11/14 01:09:42;;;;;;;56.42;30.42;;;6.50;99.90;;;;;;5057421;28;20036;-36
2022/11/14 01:12:08;;;;;;;57.47;31.15;;;6.40;99.90;;;;;;5081873;28;20065;-31
2022/11/14 01:14:34;;;;;;;54.63;31.75;;;6.30;99.90;;;;;;5065810;28;20040;-34
2022/11/14 01:17:00;;;;;;;61.08;33.38;;;6.30;99.90;;;;;;5076998;28;20036;-33
2022/11/14 01:19:25;;;;;;;58.42;32.90;;;6.20;99.90;;;;;;5058328;28;20033;-32
2022/11/14 01:21:51;;;;;;;58.17;32.47;;;6.20;99.90;;;;;;5056486;28;20048;-33
2022/11/14 01:24:17;;;;;;;59.10;31.58;;;6.10;99.90;;;;;;5062496;28;20097;-33
2022/11/14 01:26:43;;;;;;;59.22;33.60;;;6.10;99.90;;;;;;5073604;28;20461;-32
2022/11/14 01:29:08;;;;;;;64.45;33.80;;;6.00;99.90;;;;;;5072956;28;20033;-30
2022/11/14 01:31:34;;;;;;;63.05;35.40;;;6.00;99.90;;;;;;5050357;28;20472;-31
2022/11/14 01:34:00;;;;;;;62.72;33.63;;;6.00;99.90;;;;;;5070392;28;20111;-32
2022/11/14 01:36:26;;;;;;;64.50;34.53;;;5.90;99.90;;;;;;5065847;28;20045;-31
2022/11/14 01:38:53;;;;;;;71.07;35.47;;;5.80;99.90;;;;;;5083399;28;20040;-33
2022/11/14 01:41:19;;;;;;;63.60;33.45;;;5.80;99.90;;;;;;5056172;28;20579;-33
2022/11/14 01:43:45;;;;;;;66.28;34.88;;;5.80;99.90;;;;;;5064449;28;20086;-31
2022/11/14 01:46:25;;;;;;;61.40;33.50;;;5.80;99.90;;;;;;5076096;28;20036;-31
2022/11/14 01:49:15;;;;;;;63.03;34.88;;;5.90;99.90;;;;;;5072746;28;20033;-31
2022/11/14 01:52:02;;;;;;;61.30;33.65;;;5.90;99.90;;;;;;5073868;28;20036;-31
2022/11/14 01:54:31;;;;;;;69.78;36.60;;;5.90;99.90;;;;;;5060803;28;20039;-32
2022/11/14 01:57:00;;;;;;;70.30;37.15;;;5.90;99.90;;;;;;5076108;28;20115;-32
2022/11/14 01:59:40;;;;;;;65.78;36.30;;;5.90;99.90;;;;;;5074049;28;20120;-32
2022/11/14 02:02:15;;;;;;;66.82;35.00;;;5.90;99.90;;;;;;5066309;28;20033;-30
2022/11/14 02:04:45;;;;;;;65.38;35.53;;;5.90;99.90;;;;;;5072487;28;20071;-31
2022/11/14 02:07:12;;;;;;;65.30;34.80;;;5.90;99.90;;;;;;5078444;28;20386;-32
2022/11/14 02:09:42;;;;;;;68.60;37.53;;;6.00;99.90;;;;;;5047304;28;20129;-33
2022/11/14 02:12:13;;;;;;;74.22;38.88;;;5.90;99.90;;;;;;5061415;28;20489;-33
2022/11/14 02:14:40;;;;;;;65.45;36.03;;;5.90;99.90;;;;;;5049879;28;20033;-32
2022/11/14 02:17:06;;;;;;;66.07;33.83;;;6.00;99.90;;;;;;5054488;28;20083;-31
2022/11/14 02:19:48;;;;;;;64.65;34.40;;;5.90;99.90;;;;;;5057375;28;20036;-33
2022/11/14 02:22:14;;;;;;;69.32;36.58;;;5.90;99.90;;;;;;5072306;28;20075;-31
2022/11/14 02:24:40;;;;;;;73.15;37.05;;;5.90;99.90;;;;;;5049549;28;20079;-32
2022/11/14 02:27:07;;;;;;;73.82;38.33;;;6.00;99.90;;;;;;5068060;28;20120;-31
2022/11/14 02:29:33;;;;;;;69.15;37.58;;;6.00;99.90;;;;;;5044310;28;20036;-35
2022/11/14 02:32:00;;;;;;;71.43;36.70;;;6.00;99.90;;;;;;5056586;28;20122;-33
2022/11/14 02:34:26;;;;;;;73.13;38.60;;;6.00;99.90;;;;;;5049193;28;20041;-32
2022/11/14 02:36:52;;;;;;;68.97;36.90;;;6.00;99.90;;;;;;5076032;28;20040;-33
2022/11/14 02:39:18;;;;;;;71.38;37.08;;;6.10;99.90;;;;;;5057936;28;20033;-31
2022/11/14 02:41:43;;;;;;;71.97;36.15;;;6.10;99.90;;;;;;5066374;28;20402;-31
2022/11/14 02:44:09;;;;;;;66.05;35.67;;;6.10;99.90;;;;;;5064973;28;20110;-32
2022/11/14 02:46:35;;;;;;;73.10;38.50;;;6.10;99.90;;;;;;5057123;28;20033;-33
2022/11/14 02:49:01;;;;;;;65.32;36.03;;;6.10;99.90;;;;;;5083768;28;20035;-33
2022/11/14 02:51:27;;;;;;;69.15;37.95;;;6.10;99.90;;;;;;5063989;28;20035;-31
2022/11/14 02:53:53;;;;;;;64.28;34.80;;;6.10;99.90;;;;;;5068844;28;20036;-32
2022/11/14 02:56:18;;;;;;;67.25;36.88;;;6.10;99.90;;;;;;5072453;28;20055;-33
2022/11/14 02:58:44;;;;;;;73.18;36.33;;;6.10;99.90;;;;;;5075547;28;20133;-34
2022/11/14 03:01:10;;;;;;;70.97;38.13;;;6.10;99.90;;;;;;5068033;28;20033;-30
2022/11/14 03:03:36;;;;;;;68.20;37.30;;;6.20;99.90;;;;;;5081536;28;20119;-32
2022/11/14 03:06:03;;;;;;;72.72;36.20;;;6.10;99.90;;;;;;5058650;28;20039;-32
2022/11/14 03:08:29;;;;;;;71.13;38.17;;;6.10;99.90;;;;;;5066851;28;20044;-34
2022/11/14 03:10:55;;;;;;;68.13;36.88;;;6.10;99.90;;;;;;5071477;28;20482;-32
2022/11/14 03:13:21;;;;;;;63.55;36.22;;;6.20;99.90;;;;;;5077013;28;20127;-32
2022/11/14 03:15:47;;;;;;;65.72;35.67;;;6.20;99.90;;;;;;5072275;28;20109;-32
2022/11/14 03:18:13;;;;;;;65.40;36.13;;;6.10;99.90;;;;;;5064205;28;20033;-31
2022/11/14 03:20:39;;;;;;;69.25;38.22;;;6.20;99.90;;;;;;5074978;28;20029;-32
2022/11/14 03:23:05;;;;;;;64.13;35.88;;;6.10;99.90;;;;;;5063355;28;20035;-32
2022/11/14 03:25:30;;;;;;;64.63;37.53;;;6.10;99.90;;;;;;5057880;28;20110;-31
2022/11/14 03:27:56;;;;;;;66.63;36.53;;;6.10;99.90;;;;;;5054279;28;20068;-37
2022/11/14 03:30:22;;;;;;;71.75;37.30;;;6.10;99.90;;;;;;5074465;28;20043;-30
2022/11/14 03:32:48;;;;;;;71.72;38.38;;;6.10;99.90;;;;;;5076396;28;20028;-34
2022/11/14 03:35:13;;;;;;;70.20;37.80;;;6.10;99.90;;;;;;5057018;28;20032;-32
2022/11/14 03:37:39;;;;;;;70.18;38.28;;;6.10;99.90;;;;;;5072632;28;20513;-32
2022/11/14 03:40:06;;;;;;;69.97;37.35;;;6.10;99.90;;;;;;5068217;28;20178;-31
2022/11/14 03:42:35;;;;;;;69.00;38.75;;;6.10;99.90;;;;;;5070885;28;20072;-32
2022/11/14 03:45:01;;;;;;;61.58;34.92;;;6.10;99.90;;;;;;5057978;28;20095;-35
2022/11/14 03:47:27;;;;;;;69.78;37.35;;;6.10;99.90;;;;;;5055732;28;20036;-32
2022/11/14 03:49:52;;;;;;;74.53;39.45;;;6.10;99.90;;;;;;5083037;28;20035;-33
2022/11/14 03:52:18;;;;;;;72.35;37.85;;;6.10;99.90;;;;;;5075299;28;20052;-32
2022/11/14 03:54:44;;;;;;;69.88;38.03;;;6.00;99.90;;;;;;5074928;28;20029;-31
2022/11/14 03:57:10;;;;;;;62.92;36.42;;;6.10;99.90;;;;;;5067967;28;20098;-34
2022/11/14 03:59:36;;;;;;;67.20;36.78;;;6.00;99.90;;;;;;5053940;28;20029;-31
2022/11/14 04:02:01;;;;;;;67.07;37.10;;;6.00;99.90;;;;;;5059076;28;20115;-32
2022/11/14 04:04:27;;;;;;;66.63;37.58;;;6.00;99.90;;;;;;5048146;28;20083;-31
2022/11/14 04:06:53;;;;;;;67.03;35.45;;;6.00;99.90;;;;;;5058802;28;20068;-33
2022/11/14 04:09:19;;;;;;;72.78;39.85;;;6.00;99.90;;;;;;5054574;28;20040;-31
2022/11/14 04:11:44;;;;;;;69.38;36.40;;;6.00;99.90;;;;;;5058147;28;20036;-32
2022/11/14 04:14:10;;;;;;;72.72;39.42;;;6.00;99.90;;;;;;5059016;28;20037;-33
2022/11/14 04:16:36;;;;;;;70.00;37.03;;;6.00;99.90;;;;;;5072301;28;20036;-32
2022/11/14 04:19:02;;;;;;;67.40;35.97;;;6.00;99.90;;;;;;5057956;28;20036;-33
2022/11/14 04:21:28;;;;;;;79.20;40.45;;;6.00;99.90;;;;;;5071169;28;20079;-32
2022/11/14 04:23:53;;;;;;;68.97;37.08;;;6.00;99.90;;;;;;5072229;28;20044;-33
2022/11/14 04:26:19;;;;;;;68.90;37.35;;;6.00;99.90;;;;;;5071602;28;20449;-33
2022/11/14 04:28:45;;;;;;;69.90;38.30;;;6.00;99.90;;;;;;5064852;28;20048;-32
2022/11/14 04:31:11;;;;;;;73.15;39.22;;;6.00;99.90;;;;;;5075015;28;20118;-34
2022/11/14 04:33:36;;;;;;;70.82;38.03;;;6.00;99.90;;;;;;5080129;28;20227;-33
2022/11/14 04:36:02;;;;;;;68.18;37.42;;;6.00;99.90;;;;;;5074547;28;20040;-32
2022/11/14 04:38:28;;;;;;;67.00;35.72;;;6.10;99.90;;;;;;5059851;28;20405;-33
2022/11/14 04:40:54;;;;;;;72.55;38.40;;;6.00;99.90;;;;;;5063586;28;20079;-33
2022/11/14 04:43:20;;;;;;;69.18;37.92;;;6.10;99.90;;;;;;5054834;28;20040;-31
2022/11/14 04:45:46;;;;;;;69.40;37.35;;;6.10;99.90;;;;;;5057508;28;20377;-34
2022/11/14 04:48:12;;;;;;;74.47;38.65;;;6.10;99.90;;;;;;5074265;28;20401;-33
2022/11/14 04:50:38;;;;;;;67.03;37.60;;;6.10;99.90;;;;;;5073711;28;20076;-33
2022/11/14 04:53:04;;;;;;;73.30;39.78;;;6.10;99.90;;;;;;5077114;28;20071;-32
2022/11/14 04:55:30;;;;;;;70.80;38.53;;;6.10;99.90;;;;;;5086588;28;20321;-33
2022/11/14 04:57:57;;;;;;;66.03;36.47;;;6.10;99.90;;;;;;5071276;28;20036;-32
2022/11/14 05:00:24;;;;;;;66.03;37.30;;;6.10;99.90;;;;;;5074975;28;20036;-32
2022/11/14 05:02:50;;;;;;;74.32;38.60;;;6.10;99.90;;;;;;5070082;28;20032;-35
2022/11/14 05:05:16;;;;;;;75.65;41.03;;;6.10;99.90;;;;;;5064013;28;20037;-32
2022/11/14 05:07:42;;;;;;;72.78;39.10;;;6.10;99.90;;;;;;5057456;28;20041;-34
2022/11/14 05:10:08;;;;;;;66.10;36.78;;;6.10;99.90;;;;;;5058288;28;20037;-31
2022/11/14 05:12:34;;;;;;;68.88;38.47;;;6.10;99.90;;;;;;5072604;28;20048;-31
2022/11/14 05:15:00;;;;;;;66.38;37.47;;;6.10;99.90;;;;;;5060317;28;20037;-33
2022/11/14 05:17:27;;;;;;;68.03;38.03;;;6.10;99.90;;;;;;5068568;28;20039;-33
2022/11/14 05:19:52;;;;;;;65.47;36.58;;;6.10;99.90;;;;;;5067468;28;20037;-34
2022/11/14 05:22:19;;;;;;;69.57;37.88;;;6.10;99.90;;;;;;5065234;28;20050;-32
2022/11/14 05:24:45;;;;;;;69.20;37.33;;;6.10;99.90;;;;;;5076302;28;20037;-32
2022/11/14 05:27:11;;;;;;;68.18;38.75;;;6.10;99.90;;;;;;5067851;28;20040;-31
2022/11/14 05:29:37;;;;;;;70.82;38.90;;;6.10;99.90;;;;;;5062205;28;20507;-34
2022/11/14 05:32:02;;;;;;;73.28;38.97;;;6.10;99.90;;;;;;5066622;28;20066;-32
2022/11/14 05:34:28;;;;;;;67.38;37.78;;;6.10;99.90;;;;;;5077865;28;20032;-33
2022/11/14 05:36:54;;;;;;;71.78;39.35;;;6.10;99.90;;;;;;5074908;28;20039;-32
2022/11/14 05:39:20;;;;;;;69.45;38.83;;;6.10;99.90;;;;;;5078234;28;20402;-33
2022/11/14 05:41:46;;;;;;;72.85;38.55;;;6.10;99.90;;;;;;5068388;28;20111;-32
2022/11/14 05:44:11;;;;;;;69.93;38.13;;;6.10;99.90;;;;;;5078042;28;20081;-33
2022/11/14 05:46:37;;;;;;;75.47;38.35;;;6.10;99.90;;;;;;5072038;28;20040;-30
2022/11/14 05:49:03;;;;;;;66.07;38.42;;;6.10;99.90;;;;;;5054642;28;20123;-32
2022/11/14 05:51:29;;;;;;;72.72;39.13;;;6.10;99.90;;;;;;5069946;28;20066;-32
2022/11/14 05:53:55;;;;;;;68.82;38.47;;;6.10;99.90;;;;;;5069254;28;20043;-32
2022/11/14 05:56:21;;;;;;;76.55;40.30;;;6.10;99.90;;;;;;5055149;28;20044;-32
2022/11/14 05:58:46;;;;;;;72.65;38.28;;;6.10;99.90;;;;;;5053179;28;20466;-32
2022/11/14 06:01:17;;;;;;;74.72;39.72;;;6.00;99.90;;;;;;5070283;28;20037;-34
2022/11/14 06:03:45;;;;;;;75.63;38.60;;;6.00;99.90;;;;;;5052342;28;20079;-31
2022/11/14 06:06:15;;;;;;;78.15;38.72;;;6.00;99.90;;;;;;5068409;28;20032;-32
2022/11/14 06:08:41;;;;;;;71.05;38.05;;;6.00;99.90;;;;;;5050997;28;20397;-32
2022/11/14 06:11:09;;;;;;;70.25;38.05;;;6.00;99.90;;;;;;5070218;28;20048;-33
2022/11/14 06:13:36;;;;;;;76.38;40.03;;;6.00;99.90;;;;;;5040214;28;20089;-31
2022/11/14 06:16:04;;;;;;;72.65;39.03;;;6.00;99.90;;;;;;5068583;28;20047;-31
2022/11/14 06:18:31;;;;;;;73.40;39.47;;;6.00;99.90;;;;;;5067671;28;20048;-32
2022/11/14 06:21:06;;;;;;;73.95;39.00;;;6.00;99.90;;;;;;5071749;28;20170;-33
2022/11/14 06:23:32;;;;;;;65.80;35.75;;;6.00;99.90;;;;;;5063136;28;20116;-32
2022/11/14 06:26:00;;;;;;;76.28;38.10;;;6.00;99.90;;;;;;5067392;28;20040;-32
2022/11/14 06:28:26;;;;;;;71.10;36.80;;;6.00;99.90;;;;;;5052191;28;20074;-32
2022/11/14 06:31:00;;;;;;;72.82;37.72;;;5.90;99.90;;;;;;5069181;28;20036;-32
2022/11/14 06:33:27;;;;;;;71.32;36.95;;;5.90;99.90;;;;;;5071408;28;20064;-32
2022/11/14 06:35:58;;;;;;;69.78;37.53;;;5.90;99.90;;;;;;5064424;28;20059;-32
2022/11/14 06:38:23;;;;;;;69.22;36.90;;;5.90;99.90;;;;;;5056901;28;20041;-31
2022/11/14 06:40:49;;;;;;;76.95;38.47;;;5.90;99.90;;;;;;5073404;28;20037;-32
2022/11/14 06:43:15;;;;;;;68.38;35.50;;;5.80;99.90;;;;;;5069837;28;20024;-34
2022/11/14 06:45:41;;;;;;;68.20;36.33;;;5.80;99.90;;;;;;5076909;28;20032;-31
2022/11/14 06:48:07;;;;;;;70.72;35.90;;;5.80;99.90;;;;;;5069363;28;20533;-33
2022/11/14 06:50:33;;;;;;;65.05;34.95;;;5.70;99.90;;;;;;5063109;28;20078;-33
2022/11/14 06:52:59;;;;;;;72.05;36.90;;;5.70;99.90;;;;;;5071924;28;20044;-34
2022/11/14 06:55:25;;;;;;;72.30;37.08;;;5.70;99.90;;;;;;5054908;28;20040;-33
2022/11/14 06:57:54;;;;;;;71.15;36.60;;;5.60;99.90;;;;;;5058737;28;20037;-32
2022/11/14 07:00:21;;;;;;;69.65;36.53;;;5.60;99.90;;;;;;5058915;28;20041;-31
2022/11/14 07:02:47;;;;;;;69.20;36.40;;;5.60;99.90;;;;;;5069226;28;20036;-31
2022/11/14 07:05:13;;;;;;;70.28;36.08;;;5.60;99.90;;;;;;5069965;28;20033;-31
2022/11/14 07:07:39;;;;;;;70.72;36.33;;;5.60;99.90;;;;;;5070552;28;20040;-33
2022/11/14 07:10:06;;;;;;;75.00;36.50;;;5.50;99.90;;;;;;5074187;28;20044;-33
2022/11/14 07:12:31;;;;;;;69.75;36.15;;;5.40;99.90;;;;;;5069183;28;20115;-32
2022/11/14 07:14:57;;;;;;;65.85;35.47;;;5.40;99.90;;;;;;5078267;28;20064;-31
2022/11/14 07:17:23;;;;;;;77.28;37.22;;;5.30;99.90;;;;;;5059713;28;20041;-34
2022/11/14 07:19:49;;;;;;;58.40;32.83;;;5.30;99.90;;;;;;5055941;28;20062;-31
2022/11/14 07:22:15;;;;;;;76.40;36.65;;;5.20;99.90;;;;;;5074536;28;20448;-31
2022/11/14 07:24:41;;;;;;;69.28;34.95;;;5.20;99.90;;;;;;5073335;28;20115;-32
2022/11/14 07:27:09;;;;;;;78.07;37.80;;;5.20;99.90;;;;;;5075172;28;20166;-31
2022/11/14 07:29:35;;;;;;;76.97;38.97;;;5.10;99.90;;;;;;5074143;28;20398;-32
2022/11/14 07:32:01;;;;;;;71.53;35.58;;;5.10;99.90;;;;;;5074013;28;20028;-31
2022/11/14 07:34:27;;;;;;;72.55;37.30;;;5.10;99.90;;;;;;5073934;28;20037;-32
2022/11/14 07:36:53;;;;;;;76.90;37.53;;;5.10;99.90;;;;;;5077275;28;20040;-32
2022/11/14 07:39:20;;;;;;;77.65;39.70;;;5.10;99.90;;;;;;5073075;28;20032;-32
2022/11/14 07:41:45;;;;;;;75.72;37.60;;;5.10;99.90;;;;;;5074049;28;20028;-32
2022/11/14 07:44:11;;;;;;;75.88;38.70;;;5.10;99.90;;;;;;5067178;28;20067;-32
2022/11/14 07:46:37;;;;;;;79.70;39.13;;;5.20;99.90;;;;;;5062317;28;20044;-31
2022/11/14 07:49:03;;;;;;;82.38;40.00;;;5.20;99.90;;;;;;5066554;28;20032;-33
2022/11/14 07:51:28;;;;;;;91.55;42.33;;;5.30;99.90;;;;;;5072979;28;20079;-32
2022/11/14 07:53:54;;;;;;;80.47;41.53;;;5.30;99.90;;;;;;5065788;28;20127;-32
2022/11/14 07:56:21;;;;;;;86.57;42.17;;;5.40;99.90;;;;;;5075158;28;20040;-32
2022/11/14 07:58:47;;;;;;;79.40;40.92;;;5.50;99.90;;;;;;5056754;28;20032;-32
2022/11/14 08:01:13;;;;;;;80.05;39.33;;;5.50;99.90;;;;;;5056881;28;20079;-31
2022/11/14 08:03:39;;;;;;;75.03;38.60;;;5.50;99.90;;;;;;5060158;28;20040;-32
2022/11/14 08:06:07;;;;;;;73.78;39.03;;;5.60;99.90;;;;;;5055341;28;20040;-32
2022/11/14 08:08:33;;;;;;;77.55;39.10;;;5.60;99.90;;;;;;5072994;28;20079;-31
2022/11/14 08:10:59;;;;;;;76.38;38.17;;;5.70;99.90;;;;;;5071441;28;20556;-32
2022/11/14 08:13:26;;;;;;;71.80;36.17;;;5.70;99.90;;;;;;5072782;28;20290;-33
2022/11/14 08:15:52;;;;;;;68.95;36.80;;;5.80;99.90;;;;;;5058054;28;20086;-31
2022/11/14 08:18:18;;;;;;;72.95;37.33;;;5.80;99.90;;;;;;5057147;28;20068;-32
2022/11/14 08:20:44;;;;;;;71.20;35.72;;;5.90;99.90;;;;;;5056406;28;20032;-31
2022/11/14 08:23:11;;;;;;;68.70;36.72;;;6.00;99.90;;;;;;5075022;28;20055;-32
2022/11/14 08:25:37;;;;;;;67.05;34.13;;;6.10;99.90;;;;;;5064416;28;20477;-32
2022/11/14 08:28:03;;;;;;;62.88;34.15;;;6.20;99.90;;;;;;5053011;28;20131;-32
2022/11/14 08:30:29;;;;;;;66.63;36.20;;;6.40;99.90;;;;;;5057248;28;20134;-32
2022/11/14 08:32:55;;;;;;;65.15;34.25;;;6.60;99.90;;;;;;5069438;28;20410;-32
2022/11/14 08:35:21;;;;;;;55.28;32.85;;;6.70;99.90;;;;;;5054423;28;20044;-33
2022/11/14 08:37:46;;;;;;;59.60;33.03;;;6.90;99.90;;;;;;5067448;28;20040;-31
2022/11/14 08:40:12;;;;;;;58.72;33.90;;;7.00;99.90;;;;;;5066635;28;20107;-34
2022/11/14 08:42:39;;;;;;;62.60;34.80;;;7.10;99.90;;;;;;5073207;28;20086;-32
2022/11/14 08:45:05;;;;;;;64.68;34.63;;;7.20;99.90;;;;;;5074674;28;20036;-33
2022/11/14 08:47:31;;;;;;;61.47;33.97;;;7.10;99.90;;;;;;5059928;28;20128;-34
2022/11/14 08:49:57;;;;;;;61.38;34.58;;;7.10;99.90;;;;;;5055745;28;20530;-33
2022/11/14 08:52:22;;;;;;;65.50;34.65;;;7.10;99.90;;;;;;5054762;28;20043;-32
2022/11/14 08:54:48;;;;;;;62.22;34.13;;;7.10;99.90;;;;;;5075535;28;20036;-31
2022/11/14 08:57:14;;;;;;;59.05;33.72;;;7.20;99.90;;;;;;5059258;28;20037;-32
2022/11/14 08:59:40;;;;;;;62.72;34.40;;;7.20;99.90;;;;;;5063414;28;20039;-34
2022/11/14 09:02:10;;;;;;;59.75;33.95;;;7.30;99.90;;;;;;5082548;28;20286;-32
2022/11/14 09:04:36;;;;;;;58.63;33.55;;;7.40;99.90;;;;;;5057956;28;20033;-32
2022/11/14 09:07:02;;;;;;;60.42;34.38;;;7.40;99.90;;;;;;5051319;28;20413;-32
2022/11/14 09:09:28;;;;;;;57.78;32.83;;;7.30;99.90;;;;;;5068778;28;20043;-32
2022/11/14 09:11:54;;;;;;;58.03;34.30;;;7.30;99.90;;;;;;5069314;28;20033;-33
2022/11/14 09:14:19;;;;;;;64.32;34.42;;;7.30;99.90;;;;;;5071433;28;20041;-34
2022/11/14 09:16:48;;;;;;;58.83;33.40;;;7.40;99.90;;;;;;5054993;28;20028;-32
2022/11/14 09:19:14;;;;;;;58.47;32.92;;;7.50;99.90;;;;;;5071687;28;20028;-33
2022/11/14 09:21:40;;;;;;;57.08;31.98;;;7.60;99.90;;;;;;5057788;28;20093;-33
2022/11/14 09:24:06;;;;;;;55.40;31.85;;;7.60;99.90;;;;;;5060775;28;20063;-32
2022/11/14 09:26:32;;;;;;;57.58;32.17;;;7.60;99.90;;;;;;5065737;28;20068;-34
2022/11/14 09:28:59;;;;;;;57.05;31.50;;;7.70;99.90;;;;;;5055356;28;20402;-31
2022/11/14 09:31:25;;;;;;;57.17;32.58;;;7.70;99.90;;;;;;5057785;28;20406;-32
2022/11/14 09:33:51;;;;;;;58.78;33.90;;;7.80;99.90;;;;;;5051342;28;20094;-33
2022/11/14 09:36:17;;;;;;;59.20;33.80;;;7.70;99.90;;;;;;5065671;28;20047;-32
2022/11/14 09:38:44;;;;;;;57.20;32.42;;;7.70;99.90;;;;;;5063031;28;20047;-32
2022/11/14 09:41:26;;;;;;;55.97;32.40;;;7.80;99.90;;;;;;5071168;28;20082;-32
2022/11/14 09:44:22;;;;;;;56.95;32.25;;;7.80;99.90;;;;;;5053189;28;20300;-32
2022/11/14 09:47:03;;;;;;;55.20;32.22;;;7.90;99.90;;;;;;5054286;28;20036;-34
2022/11/14 09:49:37;;;;;;;55.47;32.63;;;8.10;99.90;;;;;;5052608;28;20040;-34
2022/11/14 09:52:31;;;;;;;55.38;32.20;;;8.20;99.90;;;;;;5052840;28;20490;-35
2022/11/14 09:55:01;;;;;;;52.55;32.00;;;8.30;99.90;;;;;;5069091;28;20044;-33
2022/11/14 09:57:28;;;;;;;52.67;31.23;;;8.40;99.90;;;;;;5071741;28;20189;-33
2022/11/14 09:59:55;;;;;;;54.95;31.92;;;8.50;99.90;;;;;;5071487;28;20131;-32
2022/11/14 10:02:43;;;;;;;50.85;30.75;;;8.50;99.90;;;;;;5050624;28;20052;-34
2022/11/14 10:05:21;;;;;;;48.53;28.35;;;8.60;99.90;;;;;;5050850;28;20036;-33
2022/11/14 10:07:49;;;;;;;49.45;30.23;;;8.60;99.90;;;;;;5067269;28;20040;-36
2022/11/14 10:10:42;;;;;;;47.25;28.83;;;8.70;99.90;;;;;;5071399;28;20571;-33
2022/11/14 10:13:26;;;;;;;46.60;29.55;;;8.90;99.90;;;;;;5074037;28;20040;-32
2022/11/14 10:16:06;;;;;;;;;;;8.90;99.90;;;;;;5064183;28;20036;-32
2022/11/14 10:18:43;;;;;;;48.53;28.88;;;9.00;99.90;;;;;;5071292;28;19928;-36
2022/11/14 10:21:45;;;;;;;44.60;28.20;;;9.20;99.90;;;;;;5070721;28;20032;-32
2022/11/14 10:24:52;;;;;;;46.45;28.67;;;9.20;99.90;;;;;;5063385;28;20036;-32
2022/11/14 10:27:26;;;;;;;47.75;29.38;;;9.40;99.90;;;;;;5059620;28;20056;-32
2022/11/14 10:30:17;;;;;;;45.10;29.42;;;9.30;99.90;;;;;;5065836;28;20038;-31
2022/11/14 10:32:55;;;;;;;42.67;27.80;;;9.70;99.90;;;;;;5062631;28;20041;-33
2022/11/14 10:35:22;;;;;;;40.55;27.23;;;10.00;99.90;;;;;;5054124;28;20063;-34
2022/11/14 10:38:03;;;;;;;41.85;28.08;;;10.20;99.90;;;;;;5071299;28;20501;-34
2022/11/14 10:40:44;;;;;;;43.10;28.38;;;10.60;99.90;;;;;;5052541;28;20174;-33
2022/11/14 10:43:40;;;;;;;39.05;28.40;;;11.40;99.90;;;;;;5064329;28;20175;-34
2022/11/14 10:46:18;;;;;;;40.72;27.02;;;11.80;99.90;;;;;;5059850;28;20032;-33
2022/11/14 10:48:49;;;;;;;37.28;27.38;;;12.20;99.90;;;;;;5066817;28;20040;-34
2022/11/14 10:51:25;;;;;;;40.90;26.20;;;12.70;99.90;;;;;;5057739;28;20559;-33
2022/11/14 10:54:09;;;;;;;37.97;26.20;;;13.20;99.90;;;;;;5056971;28;20043;-34
2022/11/14 10:56:46;;;;;;;36.10;25.92;;;13.50;99.90;;;;;;5067401;28;20406;-33
2022/11/14 10:59:12;;;;;;;32.50;24.70;;;13.40;99.90;;;;;;5063436;28;20510;-34
2022/11/14 11:01:39;;;;;;;35.42;25.00;;;12.90;99.90;;;;;;5069273;28;20106;-33
2022/11/14 11:04:28;;;;;;;34.50;25.20;;;12.60;99.90;;;;;;5069316;28;20048;-33
2022/11/14 11:13:02;;;;;;;35.55;24.23;;;11.60;99.90;;;;;;5069363;28;20039;-33
2022/11/14 11:15:38;;;;;;;33.92;23.65;;;11.80;99.90;;;;;;5061630;28;20044;-32
2022/11/14 11:18:27;;;;;;;33.22;23.48;;;12.10;99.90;;;;;;5052449;28;20537;-34
2022/11/14 11:21:14;;;;;;;32.03;23.00;;;12.50;99.90;;;;;;5054460;28;20040;-32
2022/11/14 11:23:56;;;;;;;33.90;24.27;;;12.90;99.90;;;;;;5058762;28;20516;-33
2022/11/14 11:26:31;;;;;;;32.88;24.33;;;13.00;99.90;;;;;;5073562;28;20485;-33
2022/11/14 11:29:07;;;;;;;33.78;24.00;;;13.40;99.90;;;;;;5069638;28;20054;-35
2022/11/14 11:31:52;;;;;;;30.08;23.05;;;13.60;99.90;;;;;;5057392;28;20068;-33
2022/11/14 11:34:25;;;;;;;32.67;23.00;;;13.60;99.90;;;;;;5071590;28;20127;-33
2022/11/14 11:36:58;;;;;;;32.13;23.58;;;13.40;99.90;;;;;;5056970;28;20036;-35
2022/11/14 11:39:28;;;;;;;29.15;22.60;;;13.30;99.90;;;;;;5065165;28;20409;-32
2022/11/14 11:41:58;;;;;;;30.52;21.95;;;13.20;99.90;;;;;;5072449;28;20485;-35
2022/11/14 11:44:33;;;;;;;29.63;21.85;;;13.10;99.90;;;;;;5048041;28;20036;-32
2022/11/14 11:47:01;;;;;;;29.73;21.83;;;12.90;99.90;;;;;;5076665;28;20445;-33
2022/11/14 11:49:47;;;;;;;27.27;21.95;;;13.10;99.90;;;;;;5073943;28;20072;-33
2022/11/14 11:52:31;;;;;;;27.05;21.02;;;13.50;99.90;;;;;;5074224;28;20044;-34
2022/11/14 11:55:12;;;;;;;26.95;20.88;;;13.90;99.90;;;;;;5077097;28;20090;-34
2022/11/14 11:57:52;;;;;;;26.73;20.77;;;14.00;99.90;;;;;;5058863;28;20075;-34
2022/11/14 12:00:20;;;;;;;26.65;20.65;;;14.20;99.90;;;;;;5063551;28;20074;-30
2022/11/14 12:02:51;;;;;;;26.77;21.23;;;14.50;99.90;;;;;;5072922;28;20028;-32
2022/11/14 12:05:23;;;;;;;25.65;20.95;;;15.00;99.90;;;;;;5070619;28;20489;-30
2022/11/14 12:08:03;;;;;;;24.77;20.50;;;15.70;99.90;;;;;;5059296;28;20068;-30
2022/11/14 12:10:35;;;;;;;25.05;20.42;;;16.10;99.90;;;;;;5071561;28;20043;-31
2022/11/14 12:13:18;;;;;;;22.90;19.65;;;16.00;99.90;;;;;;5070838;28;20046;-30
2022/11/14 12:15:50;;;;;;;24.05;19.75;;;16.30;99.90;;;;;;5072298;28;20086;-31
2022/11/14 12:18:54;;;;;;;24.23;19.10;;;16.60;99.90;;;;;;5059699;28;20028;-32
2022/11/14 12:21:53;;;;;;;22.10;19.45;;;17.00;98.50;;;;;;5073141;28;20126;-32
2022/11/14 12:24:40;;;;;;;24.00;19.88;;;16.80;87.20;;;;;;5071338;28;20090;-31
2022/11/14 12:27:40;;;;;;;22.50;18.95;;;16.90;99.90;;;;;;5071291;28;20037;-32
2022/11/14 12:30:12;;;;;;;22.27;18.58;;;16.80;97.00;;;;;;5071945;28;20025;-31
2022/11/14 12:33:00;;;;;;;22.30;19.25;;;17.30;99.90;;;;;;5059575;28;20039;-31
2022/11/14 12:35:31;;;;;;;22.75;19.20;;;17.80;92.50;;;;;;5070650;28;20513;-31
2022/11/14 12:37:59;;;;;;;21.08;18.35;;;17.80;92.50;;;;;;5072589;28;20060;-32
2022/11/14 12:40:32;;;;;;;21.42;18.80;;;17.50;96.80;;;;;;5073679;28;20045;-31
2022/11/14 12:43:00;;;;;;;22.33;18.65;;;17.20;95.90;;;;;;5064493;28;20044;-31
2022/11/14 12:45:35;;;;;;;21.80;18.88;;;17.40;95.80;;;;;;5067841;28;20044;-31
2022/11/14 12:48:30;;;;;;;21.35;18.27;;;18.00;92.40;;;;;;5067434;28;20044;-32
2022/11/14 12:50:58;;;;;;;20.92;18.55;;;18.10;90.10;;;;;;5070107;28;20517;-31
2022/11/14 12:53:35;;;;;;;21.08;18.10;;;18.10;92.60;;;;;;5045661;28;20600;-31